sensor_id;sensor_type;location;lat;lon;timestamp;P1;durP1;ratioP1;P2;durP2;ratioP2
3022;SDS011;1521;53.584;9.938;2023-06-10T00:00:12;15.93;;;7.27;;
3022;SDS011;1521;53.584;9.938;2023-06-10T00:02:40;16.57;;;7.13;;
3022;SDS011;1521;53.584;9.938;2023-06-10T00:05:06;12.53;;;6.23;;
3022;SDS011;1521;53.584;9.938;2023-06-10T00:07:33;15.53;;;6.77;;
3022;SDS011;1521;53.584;9.938;2023-06-10T00:10:02;17.43;;;7.10;;
3022;SDS011;1521;53.584;9.938;2023-06-10T00:12:31;14.93;;;7.07;;
3022;SDS011;1521;53.584;9.938;2023-06-10T00:15:02;15.57;;;7.10;;
3022;SDS011;1521;53.584;9.938;2023-06-10T00:17:29;13.73;;;6.17;;
3022;SDS011;1521;53.584;9.938;2023-06-10T00:19:55;12.30;;;6.77;;
3022;SDS011;1521;53.584;9.938;2023-06-10T00:22:20;14.63;;;6.33;;
3022;SDS011;1521;53.584;9.938;2023-06-10T00:24:47;14.27;;;7.60;;
3022;SDS011;1521;53.584;9.938;2023-06-10T00:27:12;12.63;;;6.20;;
3022;SDS011;1521;53.584;9.938;2023-06-10T00:29:38;11.57;;;5.80;;
3022;SDS011;1521;53.584;9.938;2023-06-10T00:32:04;10.40;;;5.60;;
3022;SDS011;1521;53.584;9.938;2023-06-10T00:34:30;8.77;;;6.03;;
3022;SDS011;1521;53.584;9.938;2023-06-10T00:36:57;9.90;;;5.50;;
3022;SDS011;1521;53.584;9.938;2023-06-10T00:39:22;12.77;;;5.30;;
3022;SDS011;1521;53.584;9.938;2023-06-10T00:41:48;15.80;;;5.60;;
3022;SDS011;1521;53.584;9.938;2023-06-10T00:44:14;9.63;;;5.17;;
3022;SDS011;1521;53.584;9.938;2023-06-10T00:46:40;8.80;;;5.83;;
3022;SDS011;1521;53.584;9.938;2023-06-10T00:49:06;13.73;;;5.10;;
3022;SDS011;1521;53.584;9.938;2023-06-10T00:51:33;12.17;;;5.40;;
3022;SDS011;1521;53.584;9.938;2023-06-10T00:54:00;12.33;;;5.43;;
3022;SDS011;1521;53.584;9.938;2023-06-10T00:56:25;13.33;;;5.50;;
3022;SDS011;1521;53.584;9.938;2023-06-10T00:58:51;9.40;;;5.23;;
3022;SDS011;1521;53.584;9.938;2023-06-10T01:01:17;13.37;;;5.30;;
3022;SDS011;1521;53.584;9.938;2023-06-10T01:03:44;11.47;;;4.87;;
3022;SDS011;1521;53.584;9.938;2023-06-10T01:08:55;10.63;;;4.40;;
3022;SDS011;1521;53.584;9.938;2023-06-10T01:11:29;8.97;;;4.73;;
3022;SDS011;1521;53.584;9.938;2023-06-10T01:14:01;11.47;;;5.27;;
3022;SDS011;1521;53.584;9.938;2023-06-10T01:16:30;11.83;;;5.20;;
3022;SDS011;1521;53.584;9.938;2023-06-10T01:18:56;11.10;;;4.97;;
3022;SDS011;1521;53.584;9.938;2023-06-10T01:21:22;9.50;;;5.13;;
3022;SDS011;1521;53.584;9.938;2023-06-10T01:23:52;8.60;;;5.07;;
3022;SDS011;1521;53.584;9.938;2023-06-10T01:26:20;7.97;;;4.90;;
3022;SDS011;1521;53.584;9.938;2023-06-10T01:29:00;9.23;;;4.47;;
3022;SDS011;1521;53.584;9.938;2023-06-10T01:31:37;12.83;;;4.80;;
3022;SDS011;1521;53.584;9.938;2023-06-10T01:34:12;8.40;;;4.90;;
3022;SDS011;1521;53.584;9.938;2023-06-10T01:36:40;16.00;;;5.27;;
3022;SDS011;1521;53.584;9.938;2023-06-10T01:39:08;15.70;;;5.13;;
3022;SDS011;1521;53.584;9.938;2023-06-10T01:41:35;9.00;;;4.63;;
3022;SDS011;1521;53.584;9.938;2023-06-10T01:44:02;13.83;;;5.00;;
3022;SDS011;1521;53.584;9.938;2023-06-10T01:46:28;7.90;;;4.60;;
3022;SDS011;1521;53.584;9.938;2023-06-10T01:48:53;11.50;;;5.33;;
3022;SDS011;1521;53.584;9.938;2023-06-10T01:51:19;11.67;;;4.90;;
3022;SDS011;1521;53.584;9.938;2023-06-10T01:53:45;17.50;;;5.03;;
3022;SDS011;1521;53.584;9.938;2023-06-10T01:56:10;9.63;;;5.00;;
3022;SDS011;1521;53.584;9.938;2023-06-10T01:58:41;8.83;;;4.33;;
3022;SDS011;1521;53.584;9.938;2023-06-10T02:01:07;10.97;;;5.03;;
3022;SDS011;1521;53.584;9.938;2023-06-10T02:03:33;7.30;;;3.97;;
3022;SDS011;1521;53.584;9.938;2023-06-10T02:05:58;11.40;;;3.70;;
3022;SDS011;1521;53.584;9.938;2023-06-10T02:08:24;10.13;;;4.00;;
3022;SDS011;1521;53.584;9.938;2023-06-10T02:10:49;9.87;;;4.40;;
3022;SDS011;1521;53.584;9.938;2023-06-10T02:13:15;8.30;;;3.37;;
3022;SDS011;1521;53.584;9.938;2023-06-10T02:15:40;9.00;;;3.83;;
3022;SDS011;1521;53.584;9.938;2023-06-10T02:18:06;5.27;;;3.80;;
3022;SDS011;1521;53.584;9.938;2023-06-10T02:20:32;12.80;;;3.83;;
3022;SDS011;1521;53.584;9.938;2023-06-10T02:22:58;9.47;;;4.00;;
3022;SDS011;1521;53.584;9.938;2023-06-10T02:25:24;9.93;;;3.97;;
3022;SDS011;1521;53.584;9.938;2023-06-10T02:27:49;9.73;;;3.80;;
3022;SDS011;1521;53.584;9.938;2023-06-10T02:30:15;8.53;;;3.73;;
3022;SDS011;1521;53.584;9.938;2023-06-10T02:32:41;8.43;;;3.50;;
3022;SDS011;1521;53.584;9.938;2023-06-10T02:35:06;6.20;;;3.13;;
3022;SDS011;1521;53.584;9.938;2023-06-10T02:37:32;5.43;;;3.10;;
3022;SDS011;1521;53.584;9.938;2023-06-10T02:39:57;6.07;;;3.40;;
3022;SDS011;1521;53.584;9.938;2023-06-10T02:42:23;8.90;;;3.90;;
3022;SDS011;1521;53.584;9.938;2023-06-10T02:44:49;10.33;;;3.70;;
3022;SDS011;1521;53.584;9.938;2023-06-10T02:47:14;8.90;;;3.33;;
3022;SDS011;1521;53.584;9.938;2023-06-10T02:49:40;5.67;;;3.47;;
3022;SDS011;1521;53.584;9.938;2023-06-10T02:52:06;9.47;;;3.97;;
3022;SDS011;1521;53.584;9.938;2023-06-10T02:54:33;12.50;;;4.10;;
3022;SDS011;1521;53.584;9.938;2023-06-10T02:56:58;10.40;;;4.00;;
3022;SDS011;1521;53.584;9.938;2023-06-10T02:59:24;8.30;;;3.33;;
3022;SDS011;1521;53.584;9.938;2023-06-10T03:01:49;6.30;;;3.43;;
3022;SDS011;1521;53.584;9.938;2023-06-10T03:04:15;8.70;;;3.70;;
3022;SDS011;1521;53.584;9.938;2023-06-10T03:06:40;7.93;;;3.40;;
3022;SDS011;1521;53.584;9.938;2023-06-10T03:09:06;10.90;;;3.30;;
3022;SDS011;1521;53.584;9.938;2023-06-10T03:11:35;13.57;;;3.80;;
3022;SDS011;1521;53.584;9.938;2023-06-10T03:14:01;8.10;;;3.13;;
3022;SDS011;1521;53.584;9.938;2023-06-10T03:16:26;8.73;;;3.50;;
3022;SDS011;1521;53.584;9.938;2023-06-10T03:18:52;10.30;;;3.40;;
3022;SDS011;1521;53.584;9.938;2023-06-10T03:21:18;7.80;;;3.67;;
3022;SDS011;1521;53.584;9.938;2023-06-10T03:23:44;11.10;;;4.00;;
3022;SDS011;1521;53.584;9.938;2023-06-10T03:26:10;6.20;;;2.97;;
3022;SDS011;1521;53.584;9.938;2023-06-10T03:28:37;10.50;;;3.57;;
3022;SDS011;1521;53.584;9.938;2023-06-10T03:31:03;12.27;;;3.80;;
3022;SDS011;1521;53.584;9.938;2023-06-10T03:33:28;11.53;;;3.77;;
3022;SDS011;1521;53.584;9.938;2023-06-10T03:35:55;7.80;;;3.50;;
3022;SDS011;1521;53.584;9.938;2023-06-10T03:38:20;5.67;;;2.90;;
3022;SDS011;1521;53.584;9.938;2023-06-10T03:40:46;5.57;;;3.73;;
3022;SDS011;1521;53.584;9.938;2023-06-10T03:43:12;8.67;;;3.43;;
3022;SDS011;1521;53.584;9.938;2023-06-10T03:45:37;11.87;;;3.93;;
3022;SDS011;1521;53.584;9.938;2023-06-10T03:48:03;8.27;;;2.97;;
3022;SDS011;1521;53.584;9.938;2023-06-10T03:50:29;5.97;;;3.33;;
3022;SDS011;1521;53.584;9.938;2023-06-10T03:52:55;7.37;;;3.63;;
3022;SDS011;1521;53.584;9.938;2023-06-10T03:55:20;6.77;;;3.17;;
3022;SDS011;1521;53.584;9.938;2023-06-10T03:57:49;8.87;;;3.33;;
3022;SDS011;1521;53.584;9.938;2023-06-10T04:00:15;9.57;;;3.03;;
3022;SDS011;1521;53.584;9.938;2023-06-10T04:02:42;8.73;;;3.30;;
3022;SDS011;1521;53.584;9.938;2023-06-10T04:05:14;8.63;;;3.37;;
3022;SDS011;1521;53.584;9.938;2023-06-10T04:07:41;8.40;;;3.23;;
3022;SDS011;1521;53.584;9.938;2023-06-10T04:10:07;6.93;;;3.30;;
3022;SDS011;1521;53.584;9.938;2023-06-10T04:12:33;12.77;;;4.07;;
3022;SDS011;1521;53.584;9.938;2023-06-10T04:14:59;5.20;;;2.70;;
3022;SDS011;1521;53.584;9.938;2023-06-10T04:17:25;7.97;;;2.80;;
3022;SDS011;1521;53.584;9.938;2023-06-10T04:19:51;6.73;;;2.70;;
3022;SDS011;1521;53.584;9.938;2023-06-10T04:22:17;9.30;;;3.20;;
3022;SDS011;1521;53.584;9.938;2023-06-10T04:24:43;7.00;;;2.80;;
3022;SDS011;1521;53.584;9.938;2023-06-10T04:27:09;9.97;;;3.20;;
3022;SDS011;1521;53.584;9.938;2023-06-10T04:29:35;5.50;;;3.10;;
3022;SDS011;1521;53.584;9.938;2023-06-10T04:32:01;3.30;;;2.60;;
3022;SDS011;1521;53.584;9.938;2023-06-10T04:34:27;7.83;;;3.10;;
3022;SDS011;1521;53.584;9.938;2023-06-10T04:36:52;6.33;;;2.90;;
3022;SDS011;1521;53.584;9.938;2023-06-10T04:39:18;11.93;;;3.67;;
3022;SDS011;1521;53.584;9.938;2023-06-10T04:41:44;7.03;;;3.10;;
3022;SDS011;1521;53.584;9.938;2023-06-10T04:44:11;4.70;;;2.80;;
3022;SDS011;1521;53.584;9.938;2023-06-10T04:46:37;11.50;;;2.90;;
3022;SDS011;1521;53.584;9.938;2023-06-10T04:49:02;4.57;;;3.00;;
3022;SDS011;1521;53.584;9.938;2023-06-10T04:51:29;5.63;;;2.53;;
3022;SDS011;1521;53.584;9.938;2023-06-10T04:53:55;9.03;;;3.00;;
3022;SDS011;1521;53.584;9.938;2023-06-10T04:56:21;4.37;;;2.40;;
3022;SDS011;1521;53.584;9.938;2023-06-10T04:58:47;9.80;;;3.10;;
3022;SDS011;1521;53.584;9.938;2023-06-10T05:01:12;10.50;;;3.50;;
3022;SDS011;1521;53.584;9.938;2023-06-10T05:03:38;7.13;;;2.60;;
3022;SDS011;1521;53.584;9.938;2023-06-10T05:06:04;9.03;;;2.90;;
3022;SDS011;1521;53.584;9.938;2023-06-10T05:08:29;8.00;;;3.20;;
3022;SDS011;1521;53.584;9.938;2023-06-10T05:10:55;10.87;;;2.60;;
3022;SDS011;1521;53.584;9.938;2023-06-10T05:13:21;7.17;;;2.73;;
3022;SDS011;1521;53.584;9.938;2023-06-10T05:15:46;7.63;;;2.90;;
3022;SDS011;1521;53.584;9.938;2023-06-10T05:18:12;11.50;;;3.30;;
3022;SDS011;1521;53.584;9.938;2023-06-10T05:20:37;10.33;;;2.93;;
3022;SDS011;1521;53.584;9.938;2023-06-10T05:23:03;11.63;;;3.03;;
3022;SDS011;1521;53.584;9.938;2023-06-10T05:25:32;6.30;;;2.70;;
3022;SDS011;1521;53.584;9.938;2023-06-10T05:27:58;8.30;;;3.40;;
3022;SDS011;1521;53.584;9.938;2023-06-10T05:30:24;12.47;;;3.73;;
3022;SDS011;1521;53.584;9.938;2023-06-10T05:32:50;7.40;;;2.60;;
3022;SDS011;1521;53.584;9.938;2023-06-10T05:35:17;8.83;;;2.47;;
3022;SDS011;1521;53.584;9.938;2023-06-10T05:37:42;5.57;;;2.23;;
3022;SDS011;1521;53.584;9.938;2023-06-10T05:40:08;8.63;;;2.87;;
3022;SDS011;1521;53.584;9.938;2023-06-10T05:42:35;7.30;;;2.63;;
3022;SDS011;1521;53.584;9.938;2023-06-10T05:45:00;8.73;;;2.47;;
3022;SDS011;1521;53.584;9.938;2023-06-10T05:47:27;9.53;;;2.60;;
3022;SDS011;1521;53.584;9.938;2023-06-10T05:49:53;7.67;;;3.10;;
3022;SDS011;1521;53.584;9.938;2023-06-10T05:52:18;8.87;;;2.50;;
3022;SDS011;1521;53.584;9.938;2023-06-10T05:54:44;6.30;;;2.40;;
3022;SDS011;1521;53.584;9.938;2023-06-10T05:57:10;6.80;;;2.90;;
3022;SDS011;1521;53.584;9.938;2023-06-10T05:59:36;7.03;;;3.00;;
3022;SDS011;1521;53.584;9.938;2023-06-10T06:02:01;11.60;;;2.80;;
3022;SDS011;1521;53.584;9.938;2023-06-10T06:04:27;7.90;;;3.03;;
3022;SDS011;1521;53.584;9.938;2023-06-10T06:06:53;11.30;;;2.67;;
3022;SDS011;1521;53.584;9.938;2023-06-10T06:09:18;7.10;;;2.77;;
3022;SDS011;1521;53.584;9.938;2023-06-10T06:11:44;9.03;;;3.27;;
3022;SDS011;1521;53.584;9.938;2023-06-10T06:14:10;7.20;;;2.40;;
3022;SDS011;1521;53.584;9.938;2023-06-10T06:16:35;6.67;;;2.60;;
3022;SDS011;1521;53.584;9.938;2023-06-10T06:19:01;5.40;;;2.50;;
3022;SDS011;1521;53.584;9.938;2023-06-10T06:21:26;5.73;;;2.70;;
3022;SDS011;1521;53.584;9.938;2023-06-10T06:23:52;5.53;;;2.17;;
3022;SDS011;1521;53.584;9.938;2023-06-10T06:26:18;9.40;;;2.90;;
3022;SDS011;1521;53.584;9.938;2023-06-10T06:28:43;5.37;;;2.83;;
3022;SDS011;1521;53.584;9.938;2023-06-10T06:31:09;8.90;;;2.77;;
3022;SDS011;1521;53.584;9.938;2023-06-10T06:33:34;6.77;;;2.67;;
3022;SDS011;1521;53.584;9.938;2023-06-10T06:36:00;6.40;;;2.60;;
3022;SDS011;1521;53.584;9.938;2023-06-10T06:38:26;6.27;;;2.90;;
3022;SDS011;1521;53.584;9.938;2023-06-10T06:40:51;7.30;;;2.60;;
3022;SDS011;1521;53.584;9.938;2023-06-10T06:43:17;6.67;;;2.43;;
3022;SDS011;1521;53.584;9.938;2023-06-10T06:45:43;8.33;;;2.57;;
3022;SDS011;1521;53.584;9.938;2023-06-10T06:48:10;6.67;;;2.50;;
3022;SDS011;1521;53.584;9.938;2023-06-10T06:50:36;6.60;;;2.90;;
3022;SDS011;1521;53.584;9.938;2023-06-10T06:53:02;7.20;;;2.80;;
3022;SDS011;1521;53.584;9.938;2023-06-10T06:55:27;6.77;;;2.60;;
3022;SDS011;1521;53.584;9.938;2023-06-10T06:57:53;7.40;;;2.80;;
3022;SDS011;1521;53.584;9.938;2023-06-10T07:00:19;9.40;;;2.80;;
3022;SDS011;1521;53.584;9.938;2023-06-10T07:02:45;8.30;;;3.50;;
3022;SDS011;1521;53.584;9.938;2023-06-10T07:05:10;12.13;;;3.03;;
3022;SDS011;1521;53.584;9.938;2023-06-10T07:07:36;5.60;;;2.30;;
3022;SDS011;1521;53.584;9.938;2023-06-10T07:10:01;5.53;;;2.70;;
3022;SDS011;1521;53.584;9.938;2023-06-10T07:12:27;5.73;;;2.90;;
3022;SDS011;1521;53.584;9.938;2023-06-10T07:14:53;4.17;;;2.43;;
3022;SDS011;1521;53.584;9.938;2023-06-10T07:17:18;6.57;;;2.60;;
3022;SDS011;1521;53.584;9.938;2023-06-10T07:19:44;5.50;;;2.33;;
3022;SDS011;1521;53.584;9.938;2023-06-10T07:22:10;6.83;;;2.60;;
3022;SDS011;1521;53.584;9.938;2023-06-10T07:24:36;10.57;;;3.00;;
3022;SDS011;1521;53.584;9.938;2023-06-10T07:27:01;5.53;;;2.73;;
3022;SDS011;1521;53.584;9.938;2023-06-10T07:29:27;6.80;;;2.97;;
3022;SDS011;1521;53.584;9.938;2023-06-10T07:31:53;10.83;;;2.80;;
3022;SDS011;1521;53.584;9.938;2023-06-10T07:34:18;11.33;;;3.30;;
3022;SDS011;1521;53.584;9.938;2023-06-10T07:36:44;10.23;;;3.10;;
3022;SDS011;1521;53.584;9.938;2023-06-10T07:39:10;10.80;;;3.30;;
3022;SDS011;1521;53.584;9.938;2023-06-10T07:41:36;7.93;;;2.97;;
3022;SDS011;1521;53.584;9.938;2023-06-10T07:44:01;7.73;;;2.63;;
3022;SDS011;1521;53.584;9.938;2023-06-10T07:46:27;7.50;;;2.90;;
3022;SDS011;1521;53.584;9.938;2023-06-10T07:48:53;6.60;;;3.30;;
3022;SDS011;1521;53.584;9.938;2023-06-10T07:51:20;5.40;;;3.20;;
3022;SDS011;1521;53.584;9.938;2023-06-10T07:53:46;7.03;;;2.77;;
3022;SDS011;1521;53.584;9.938;2023-06-10T07:56:12;5.60;;;2.60;;
3022;SDS011;1521;53.584;9.938;2023-06-10T07:58:37;11.13;;;3.30;;
3022;SDS011;1521;53.584;9.938;2023-06-10T08:01:03;11.17;;;3.40;;
3022;SDS011;1521;53.584;9.938;2023-06-10T08:03:29;4.93;;;2.90;;
3022;SDS011;1521;53.584;9.938;2023-06-10T08:05:54;9.07;;;4.30;;
3022;SDS011;1521;53.584;9.938;2023-06-10T08:08:20;8.27;;;4.10;;
3022;SDS011;1521;53.584;9.938;2023-06-10T08:10:46;7.00;;;3.17;;
3022;SDS011;1521;53.584;9.938;2023-06-10T08:13:11;10.30;;;3.80;;
3022;SDS011;1521;53.584;9.938;2023-06-10T08:15:37;8.87;;;3.30;;
3022;SDS011;1521;53.584;9.938;2023-06-10T08:18:03;8.60;;;3.70;;
3022;SDS011;1521;53.584;9.938;2023-06-10T08:20:28;8.73;;;3.30;;
3022;SDS011;1521;53.584;9.938;2023-06-10T08:22:54;9.47;;;2.90;;
3022;SDS011;1521;53.584;9.938;2023-06-10T08:25:20;8.20;;;3.20;;
3022;SDS011;1521;53.584;9.938;2023-06-10T08:27:47;9.07;;;3.30;;
3022;SDS011;1521;53.584;9.938;2023-06-10T08:30:13;7.70;;;3.17;;
3022;SDS011;1521;53.584;9.938;2023-06-10T08:32:39;9.17;;;3.10;;
3022;SDS011;1521;53.584;9.938;2023-06-10T08:35:05;7.40;;;3.10;;
3022;SDS011;1521;53.584;9.938;2023-06-10T08:37:30;7.30;;;3.37;;
3022;SDS011;1521;53.584;9.938;2023-06-10T08:39:56;4.30;;;2.77;;
3022;SDS011;1521;53.584;9.938;2023-06-10T08:44:54;10.23;;;3.00;;
3022;SDS011;1521;53.584;9.938;2023-06-10T08:47:22;7.90;;;3.83;;
3022;SDS011;1521;53.584;9.938;2023-06-10T08:49:48;4.83;;;3.40;;
3022;SDS011;1521;53.584;9.938;2023-06-10T08:52:15;5.50;;;3.47;;
3022;SDS011;1521;53.584;9.938;2023-06-10T08:55:00;7.50;;;3.20;;
3022;SDS011;1521;53.584;9.938;2023-06-10T08:57:29;5.20;;;3.30;;
3022;SDS011;1521;53.584;9.938;2023-06-10T08:59:56;7.37;;;3.50;;
3022;SDS011;1521;53.584;9.938;2023-06-10T09:02:22;8.50;;;4.23;;
3022;SDS011;1521;53.584;9.938;2023-06-10T09:04:49;5.80;;;3.30;;
3022;SDS011;1521;53.584;9.938;2023-06-10T09:07:15;9.10;;;3.97;;
3022;SDS011;1521;53.584;9.938;2023-06-10T09:09:44;7.17;;;3.87;;
3022;SDS011;1521;53.584;9.938;2023-06-10T09:12:10;7.10;;;3.40;;
3022;SDS011;1521;53.584;9.938;2023-06-10T09:14:38;8.53;;;3.37;;
3022;SDS011;1521;53.584;9.938;2023-06-10T09:17:04;7.67;;;3.30;;
3022;SDS011;1521;53.584;9.938;2023-06-10T09:19:31;4.30;;;2.97;;
3022;SDS011;1521;53.584;9.938;2023-06-10T09:21:57;5.67;;;3.10;;
3022;SDS011;1521;53.584;9.938;2023-06-10T09:24:23;10.40;;;3.27;;
3022;SDS011;1521;53.584;9.938;2023-06-10T09:26:49;10.53;;;3.70;;
3022;SDS011;1521;53.584;9.938;2023-06-10T09:29:16;6.47;;;3.33;;
3022;SDS011;1521;53.584;9.938;2023-06-10T09:31:42;8.43;;;3.90;;
3022;SDS011;1521;53.584;9.938;2023-06-10T09:34:10;8.27;;;3.80;;
3022;SDS011;1521;53.584;9.938;2023-06-10T09:36:37;13.97;;;3.90;;
3022;SDS011;1521;53.584;9.938;2023-06-10T09:39:04;8.53;;;3.83;;
3022;SDS011;1521;53.584;9.938;2023-06-10T09:41:39;8.07;;;4.40;;
3022;SDS011;1521;53.584;9.938;2023-06-10T09:44:15;11.43;;;4.17;;
3022;SDS011;1521;53.584;9.938;2023-06-10T09:46:42;14.33;;;4.13;;
3022;SDS011;1521;53.584;9.938;2023-06-10T09:49:10;7.20;;;3.73;;
3022;SDS011;1521;53.584;9.938;2023-06-10T09:51:36;8.93;;;3.73;;
3022;SDS011;1521;53.584;9.938;2023-06-10T09:54:02;12.33;;;4.33;;
3022;SDS011;1521;53.584;9.938;2023-06-10T09:56:34;11.50;;;3.50;;
3022;SDS011;1521;53.584;9.938;2023-06-10T09:59:01;8.80;;;3.40;;
3022;SDS011;1521;53.584;9.938;2023-06-10T10:01:28;6.40;;;4.00;;
3022;SDS011;1521;53.584;9.938;2023-06-10T10:03:55;6.70;;;3.50;;
3022;SDS011;1521;53.584;9.938;2023-06-10T10:06:21;9.53;;;3.60;;
3022;SDS011;1521;53.584;9.938;2023-06-10T10:08:47;12.07;;;3.57;;
3022;SDS011;1521;53.584;9.938;2023-06-10T10:11:19;10.13;;;3.27;;
3022;SDS011;1521;53.584;9.938;2023-06-10T10:13:47;6.10;;;3.57;;
3022;SDS011;1521;53.584;9.938;2023-06-10T10:16:15;7.20;;;3.63;;
3022;SDS011;1521;53.584;9.938;2023-06-10T10:18:53;7.90;;;3.73;;
3022;SDS011;1521;53.584;9.938;2023-06-10T10:21:22;12.00;;;4.03;;
3022;SDS011;1521;53.584;9.938;2023-06-10T10:26:32;6.10;;;3.30;;
3022;SDS011;1521;53.584;9.938;2023-06-10T10:29:07;8.70;;;4.07;;
3022;SDS011;1521;53.584;9.938;2023-06-10T10:31:37;6.83;;;3.10;;
3022;SDS011;1521;53.584;9.938;2023-06-10T10:34:09;5.77;;;3.73;;
3022;SDS011;1521;53.584;9.938;2023-06-10T10:36:41;13.03;;;3.90;;
3022;SDS011;1521;53.584;9.938;2023-06-10T10:39:08;11.87;;;4.03;;
3022;SDS011;1521;53.584;9.938;2023-06-10T10:41:34;7.00;;;3.60;;
3022;SDS011;1521;53.584;9.938;2023-06-10T10:44:01;7.00;;;3.70;;
3022;SDS011;1521;53.584;9.938;2023-06-10T10:46:30;10.00;;;4.47;;
3022;SDS011;1521;53.584;9.938;2023-06-10T10:49:06;5.50;;;3.90;;
3022;SDS011;1521;53.584;9.938;2023-06-10T10:51:35;9.70;;;4.20;;
3022;SDS011;1521;53.584;9.938;2023-06-10T10:54:14;10.07;;;4.00;;
3022;SDS011;1521;53.584;9.938;2023-06-10T10:56:44;6.23;;;4.00;;
3022;SDS011;1521;53.584;9.938;2023-06-10T11:02:17;7.63;;;3.90;;
3022;SDS011;1521;53.584;9.938;2023-06-10T11:05:03;10.43;;;3.80;;
3022;SDS011;1521;53.584;9.938;2023-06-10T11:07:30;7.63;;;3.90;;
3022;SDS011;1521;53.584;9.938;2023-06-10T11:10:01;10.03;;;4.10;;
3022;SDS011;1521;53.584;9.938;2023-06-10T11:12:42;8.90;;;4.20;;
3022;SDS011;1521;53.584;9.938;2023-06-10T11:15:11;7.60;;;3.97;;
3022;SDS011;1521;53.584;9.938;2023-06-10T11:17:37;5.53;;;3.60;;
3022;SDS011;1521;53.584;9.938;2023-06-10T11:31:23;8.53;;;3.90;;
3022;SDS011;1521;53.584;9.938;2023-06-10T11:36:26;18.33;;;4.30;;
3022;SDS011;1521;53.584;9.938;2023-06-10T11:38:54;6.50;;;4.80;;
3022;SDS011;1521;53.584;9.938;2023-06-10T11:41:23;15.53;;;4.10;;
3022;SDS011;1521;53.584;9.938;2023-06-10T11:43:55;8.43;;;3.70;;
3022;SDS011;1521;53.584;9.938;2023-06-10T11:46:22;6.90;;;4.57;;
3022;SDS011;1521;53.584;9.938;2023-06-10T11:48:49;7.80;;;4.13;;
3022;SDS011;1521;53.584;9.938;2023-06-10T11:51:16;7.80;;;4.30;;
3022;SDS011;1521;53.584;9.938;2023-06-10T11:53:45;22.77;;;5.10;;
3022;SDS011;1521;53.584;9.938;2023-06-10T11:56:11;6.73;;;3.70;;
3022;SDS011;1521;53.584;9.938;2023-06-10T11:58:37;7.70;;;4.20;;
3022;SDS011;1521;53.584;9.938;2023-06-10T12:01:06;10.10;;;4.93;;
3022;SDS011;1521;53.584;9.938;2023-06-10T12:03:35;7.70;;;4.67;;
3022;SDS011;1521;53.584;9.938;2023-06-10T12:06:06;9.10;;;5.13;;
3022;SDS011;1521;53.584;9.938;2023-06-10T12:08:32;10.97;;;5.10;;
3022;SDS011;1521;53.584;9.938;2023-06-10T12:10:58;11.33;;;5.00;;
3022;SDS011;1521;53.584;9.938;2023-06-10T12:13:27;9.77;;;4.50;;
3022;SDS011;1521;53.584;9.938;2023-06-10T12:15:53;6.93;;;4.70;;
3022;SDS011;1521;53.584;9.938;2023-06-10T12:18:20;6.23;;;4.17;;
3022;SDS011;1521;53.584;9.938;2023-06-10T12:20:47;6.93;;;4.57;;
3022;SDS011;1521;53.584;9.938;2023-06-10T12:23:16;9.50;;;4.53;;
3022;SDS011;1521;53.584;9.938;2023-06-10T12:25:55;6.37;;;4.70;;
3022;SDS011;1521;53.584;9.938;2023-06-10T12:28:24;9.83;;;5.30;;
3022;SDS011;1521;53.584;9.938;2023-06-10T12:30:50;8.23;;;4.90;;
3022;SDS011;1521;53.584;9.938;2023-06-10T12:33:17;8.67;;;5.00;;
3022;SDS011;1521;53.584;9.938;2023-06-10T12:35:50;5.93;;;4.20;;
3022;SDS011;1521;53.584;9.938;2023-06-10T12:38:23;8.53;;;5.03;;
3022;SDS011;1521;53.584;9.938;2023-06-10T12:40:52;6.57;;;4.80;;
3022;SDS011;1521;53.584;9.938;2023-06-10T12:43:24;9.07;;;5.17;;
3022;SDS011;1521;53.584;9.938;2023-06-10T12:45:51;8.20;;;4.67;;
3022;SDS011;1521;53.584;9.938;2023-06-10T12:48:17;7.23;;;5.20;;
3022;SDS011;1521;53.584;9.938;2023-06-10T12:50:44;9.53;;;5.33;;
3022;SDS011;1521;53.584;9.938;2023-06-10T12:53:11;5.57;;;4.90;;
3022;SDS011;1521;53.584;9.938;2023-06-10T12:55:37;10.13;;;4.67;;
3022;SDS011;1521;53.584;9.938;2023-06-10T12:58:03;8.27;;;4.90;;
3022;SDS011;1521;53.584;9.938;2023-06-10T13:00:29;12.63;;;5.23;;
3022;SDS011;1521;53.584;9.938;2023-06-10T13:02:59;9.83;;;5.03;;
3022;SDS011;1521;53.584;9.938;2023-06-10T13:05:26;6.03;;;4.63;;
3022;SDS011;1521;53.584;9.938;2023-06-10T13:07:52;8.90;;;5.57;;
3022;SDS011;1521;53.584;9.938;2023-06-10T13:10:18;7.30;;;4.47;;
3022;SDS011;1521;53.584;9.938;2023-06-10T13:12:44;8.80;;;4.77;;
3022;SDS011;1521;53.584;9.938;2023-06-10T13:15:10;8.60;;;5.23;;
3022;SDS011;1521;53.584;9.938;2023-06-10T13:17:36;9.53;;;5.23;;
3022;SDS011;1521;53.584;9.938;2023-06-10T13:20:02;6.30;;;4.40;;
3022;SDS011;1521;53.584;9.938;2023-06-10T13:22:30;6.83;;;5.03;;
3022;SDS011;1521;53.584;9.938;2023-06-10T13:25:00;9.10;;;5.20;;
3022;SDS011;1521;53.584;9.938;2023-06-10T13:27:30;7.27;;;4.63;;
3022;SDS011;1521;53.584;9.938;2023-06-10T13:29:55;7.57;;;4.97;;
3022;SDS011;1521;53.584;9.938;2023-06-10T13:32:21;9.87;;;5.10;;
3022;SDS011;1521;53.584;9.938;2023-06-10T13:34:47;8.63;;;4.83;;
3022;SDS011;1521;53.584;9.938;2023-06-10T13:37:14;9.40;;;4.60;;
3022;SDS011;1521;53.584;9.938;2023-06-10T13:39:42;9.47;;;4.90;;
3022;SDS011;1521;53.584;9.938;2023-06-10T13:42:07;8.60;;;4.20;;
3022;SDS011;1521;53.584;9.938;2023-06-10T13:44:33;8.77;;;4.43;;
3022;SDS011;1521;53.584;9.938;2023-06-10T13:47:01;8.17;;;4.00;;
3022;SDS011;1521;53.584;9.938;2023-06-10T13:49:30;6.97;;;4.70;;
3022;SDS011;1521;53.584;9.938;2023-06-10T13:51:56;6.37;;;4.30;;
3022;SDS011;1521;53.584;9.938;2023-06-10T13:54:21;11.10;;;4.10;;
3022;SDS011;1521;53.584;9.938;2023-06-10T13:56:47;7.30;;;3.53;;
3022;SDS011;1521;53.584;9.938;2023-06-10T13:59:13;7.47;;;3.50;;
3022;SDS011;1521;53.584;9.938;2023-06-10T14:01:39;10.87;;;4.20;;
3022;SDS011;1521;53.584;9.938;2023-06-10T14:04:05;6.10;;;3.50;;
3022;SDS011;1521;53.584;9.938;2023-06-10T14:06:31;6.87;;;3.67;;
3022;SDS011;1521;53.584;9.938;2023-06-10T14:08:58;8.10;;;4.17;;
3022;SDS011;1521;53.584;9.938;2023-06-10T14:11:24;16.80;;;5.10;;
3022;SDS011;1521;53.584;9.938;2023-06-10T14:13:50;7.10;;;3.97;;
3022;SDS011;1521;53.584;9.938;2023-06-10T14:16:15;8.83;;;4.20;;
3022;SDS011;1521;53.584;9.938;2023-06-10T14:18:41;8.00;;;3.67;;
3022;SDS011;1521;53.584;9.938;2023-06-10T14:21:06;10.90;;;3.97;;
3022;SDS011;1521;53.584;9.938;2023-06-10T14:23:32;7.60;;;3.90;;
3022;SDS011;1521;53.584;9.938;2023-06-10T14:25:57;10.93;;;3.10;;
3022;SDS011;1521;53.584;9.938;2023-06-10T14:28:24;8.63;;;3.70;;
3022;SDS011;1521;53.584;9.938;2023-06-10T14:30:51;14.00;;;3.70;;
3022;SDS011;1521;53.584;9.938;2023-06-10T14:33:17;9.60;;;3.77;;
3022;SDS011;1521;53.584;9.938;2023-06-10T14:35:43;11.23;;;3.47;;
3022;SDS011;1521;53.584;9.938;2023-06-10T14:38:09;5.03;;;3.47;;
3022;SDS011;1521;53.584;9.938;2023-06-10T14:40:34;10.90;;;3.90;;
3022;SDS011;1521;53.584;9.938;2023-06-10T14:43:00;12.33;;;4.40;;
3022;SDS011;1521;53.584;9.938;2023-06-10T14:45:28;5.83;;;3.73;;
3022;SDS011;1521;53.584;9.938;2023-06-10T14:47:54;10.83;;;3.80;;
3022;SDS011;1521;53.584;9.938;2023-06-10T14:50:20;7.10;;;3.77;;
3022;SDS011;1521;53.584;9.938;2023-06-10T14:52:46;7.73;;;4.30;;
3022;SDS011;1521;53.584;9.938;2023-06-10T14:55:11;13.37;;;4.30;;
3022;SDS011;1521;53.584;9.938;2023-06-10T14:57:37;7.37;;;3.33;;
3022;SDS011;1521;53.584;9.938;2023-06-10T15:00:03;9.50;;;4.13;;
3022;SDS011;1521;53.584;9.938;2023-06-10T15:02:29;8.97;;;4.63;;
3022;SDS011;1521;53.584;9.938;2023-06-10T15:04:54;13.10;;;4.50;;
3022;SDS011;1521;53.584;9.938;2023-06-10T15:07:20;7.80;;;4.00;;
3022;SDS011;1521;53.584;9.938;2023-06-10T15:09:45;11.47;;;4.20;;
3022;SDS011;1521;53.584;9.938;2023-06-10T15:12:11;12.60;;;3.77;;
3022;SDS011;1521;53.584;9.938;2023-06-10T15:14:37;6.13;;;3.53;;
3022;SDS011;1521;53.584;9.938;2023-06-10T15:17:02;8.90;;;4.00;;
3022;SDS011;1521;53.584;9.938;2023-06-10T15:19:28;6.80;;;4.03;;
3022;SDS011;1521;53.584;9.938;2023-06-10T15:21:54;8.13;;;4.23;;
3022;SDS011;1521;53.584;9.938;2023-06-10T15:24:19;6.43;;;3.60;;
3022;SDS011;1521;53.584;9.938;2023-06-10T15:26:45;20.50;;;4.67;;
3022;SDS011;1521;53.584;9.938;2023-06-10T15:29:11;11.80;;;4.03;;
3022;SDS011;1521;53.584;9.938;2023-06-10T15:31:36;8.50;;;4.30;;